Time;durP1;ratioP1;P1;durP2;ratioP2;P2;SDS_P1;SDS_P2;PMS_P1;PMS_P2;Temp;Humidity;BMP_temperature;BMP_pressure;BME280_temperature;BME280_humidity;BME280_pressure;Samples;Min_cycle;Max_cycle;Signal;HPM_P1;HPM_P2
2021/11/08 00:00:22;;;;;;;17.75;10.80;;;12.80;99.90;;;;;;6158853;23;20103;-87
2021/11/08 00:02:50;;;;;;;17.27;11.63;;;12.70;99.90;;;;;;6185994;23;20004;-84
2021/11/08 00:05:16;;;;;;;17.48;10.90;;;12.90;99.90;;;;;;6184850;23;19997;-88
2021/11/08 00:07:42;;;;;;;14.50;10.73;;;12.90;99.90;;;;;;6187299;23;20001;-89
2021/11/08 00:10:08;;;;;;;13.93;10.27;;;12.90;99.90;;;;;;6160943;23;20036;-87
2021/11/08 00:12:34;;;;;;;17.63;10.18;;;12.90;99.90;;;;;;6186898;23;20016;-89
2021/11/08 00:15:01;;;;;;;18.15;10.48;;;12.90;99.90;;;;;;6185933;23;20484;-88
2021/11/08 00:20:27;;;;;;;12.38;9.20;;;12.90;99.90;;;;;;6168193;23;20032;-89
2021/11/08 00:22:53;;;;;;;10.45;9.00;;;12.90;99.90;;;;;;6161393;23;20010;-88
2021/11/08 00:25:19;;;;;;;14.82;9.10;;;12.90;99.90;;;;;;6187754;23;20013;-87
2021/11/08 00:27:45;;;;;;;14.57;8.93;;;12.90;99.90;;;;;;6159664;23;20340;-86
2021/11/08 00:30:12;;;;;;;11.68;8.73;;;12.90;99.90;;;;;;6185045;23;20001;-85
2021/11/08 00:32:39;;;;;;;10.32;8.35;;;12.90;99.90;;;;;;6159122;23;20381;-86
2021/11/08 00:35:06;;;;;;;12.23;9.20;;;13.00;99.90;;;;;;6185944;23;20005;-87
2021/11/08 00:37:32;;;;;;;10.48;8.32;;;12.90;99.90;;;;;;6185243;23;19997;-86
2021/11/08 00:39:58;;;;;;;14.80;9.50;;;13.00;99.90;;;;;;6158877;23;20001;-86
2021/11/08 00:42:28;;;;;;;13.70;10.32;;;12.90;99.90;;;;;;6184852;23;20063;-86
2021/11/08 00:44:56;;;;;;;15.30;11.30;;;12.90;99.90;;;;;;6185134;23;20001;-87
2021/11/08 00:47:22;;;;;;;17.95;10.15;;;12.90;99.90;;;;;;6185108;23;20376;-87
2021/11/08 00:49:49;;;;;;;19.55;10.13;;;12.90;99.90;;;;;;6185703;23;20522;-87
2021/11/08 00:52:15;;;;;;;11.70;9.65;;;12.90;99.90;;;;;;6159442;23;20009;-87
2021/11/08 00:54:41;;;;;;;16.30;10.10;;;12.90;99.90;;;;;;6159277;23;20001;-87
2021/11/08 00:57:11;;;;;;;13.00;10.32;;;12.90;99.90;;;;;;6185632;23;20005;-87
2021/11/08 00:59:37;;;;;;;12.07;9.07;;;12.90;99.90;;;;;;6183807;23;20011;-85
2021/11/08 01:02:03;;;;;;;11.23;9.27;;;13.00;99.90;;;;;;6157772;23;20033;-85
2021/11/08 01:04:29;;;;;;;12.30;9.15;;;13.00;99.90;;;;;;6157456;23;20429;-85
2021/11/08 01:07:00;;;;;;;12.43;9.80;;;13.00;99.90;;;;;;6184660;23;19997;-84
2021/11/08 01:09:28;;;;;;;12.15;8.70;;;13.00;99.90;;;;;;6186141;23;20008;-84
2021/11/08 01:11:54;;;;;;;16.40;9.68;;;13.00;99.90;;;;;;6159835;23;20020;-84
2021/11/08 01:14:20;;;;;;;15.00;9.55;;;13.00;99.90;;;;;;6185672;23;20036;-83
2021/11/08 01:16:54;;;;;;;13.07;10.15;;;13.00;99.90;;;;;;6159217;23;20020;-84
2021/11/08 01:19:19;;;;;;;15.38;9.85;;;13.00;99.90;;;;;;6185772;23;20056;-84
2021/11/08 01:21:45;;;;;;;12.57;9.43;;;13.00;99.90;;;;;;6186122;23;20009;-84
2021/11/08 01:24:11;;;;;;;14.02;9.77;;;12.90;99.90;;;;;;6159616;23;20494;-85
2021/11/08 01:26:37;;;;;;;23.15;10.18;;;12.90;99.90;;;;;;6185842;23;20017;-83
2021/11/08 01:29:03;;;;;;;16.38;10.27;;;12.90;99.90;;;;;;6185456;23;20051;-84
2021/11/08 01:31:29;;;;;;;18.75;9.95;;;12.80;99.90;;;;;;6185769;23;20002;-84
2021/11/08 01:33:54;;;;;;;12.27;9.23;;;12.80;99.90;;;;;;6186293;23;20001;-85
2021/11/08 01:36:41;;;;;;;12.82;9.63;;;12.80;99.90;;;;;;6159893;23;20024;-85
2021/11/08 01:39:17;;;;;;;15.15;10.15;;;12.80;99.90;;;;;;6186015;23;20435;-85
2021/11/08 01:41:43;;;;;;;15.25;9.57;;;12.80;99.90;;;;;;6185893;23;20005;-85
2021/11/08 01:44:09;;;;;;;13.60;9.07;;;12.80;99.90;;;;;;6185789;23;20008;-85
2021/11/08 01:46:36;;;;;;;11.18;9.63;;;12.70;99.90;;;;;;6185761;23;19993;-84
2021/11/08 01:49:02;;;;;;;14.25;8.90;;;12.60;99.90;;;;;;6159544;23;20332;-85
2021/11/08 01:51:28;;;;;;;15.30;9.82;;;12.70;99.90;;;;;;6185752;23;20052;-85
2021/11/08 01:53:55;;;;;;;12.60;9.05;;;12.70;99.90;;;;;;6185415;23;20005;-85
2021/11/08 01:56:22;;;;;;;15.05;9.40;;;12.60;99.90;;;;;;6158821;23;20017;-85
2021/11/08 01:58:49;;;;;;;14.30;8.88;;;12.60;99.90;;;;;;6185074;23;20002;-84
2021/11/08 02:01:15;;;;;;;17.52;9.57;;;12.60;99.90;;;;;;6158918;23;20001;-83
2021/11/08 02:03:43;;;;;;;15.52;8.60;;;12.70;99.90;;;;;;6185332;23;20008;-84
2021/11/08 02:06:09;;;;;;;12.57;9.18;;;12.70;99.90;;;;;;6185567;23;20001;-84
2021/11/08 02:08:37;;;;;;;11.45;9.00;;;12.80;99.90;;;;;;6158924;23;20011;-84
2021/11/08 02:11:03;;;;;;;12.63;8.52;;;12.80;99.90;;;;;;6185283;23;20016;-83
2021/11/08 02:13:30;;;;;;;19.33;10.07;;;12.80;99.90;;;;;;6185261;23;20357;-86
2021/11/08 02:15:55;;;;;;;13.15;9.98;;;12.90;99.90;;;;;;6185844;23;20064;-85
2021/11/08 02:18:23;;;;;;;12.80;9.60;;;12.80;99.90;;;;;;6184982;23;20008;-84
2021/11/08 02:20:50;;;;;;;11.82;8.95;;;12.80;99.90;;;;;;6185049;23;20436;-84
2021/11/08 02:23:18;;;;;;;12.55;8.73;;;12.90;99.90;;;;;;6185258;23;20001;-84
2021/11/08 02:25:45;;;;;;;16.38;9.35;;;12.90;99.90;;;;;;6184662;23;20040;-83
2021/11/08 02:28:12;;;;;;;11.57;8.82;;;12.90;99.90;;;;;;6185265;23;20001;-84
2021/11/08 02:30:40;;;;;;;12.73;9.27;;;12.90;99.90;;;;;;6158542;23;20005;-84
2021/11/08 02:33:11;;;;;;;12.30;9.10;;;12.90;99.90;;;;;;6184917;23;20008;-84
2021/11/08 02:35:37;;;;;;;12.43;9.07;;;12.90;99.90;;;;;;6184690;23;20020;-83
2021/11/08 02:38:05;;;;;;;11.32;9.27;;;12.90;99.90;;;;;;6158336;23;20164;-82
2021/11/08 02:40:31;;;;;;;13.90;9.02;;;12.90;99.90;;;;;;6158348;23;20013;-83
2021/11/08 02:43:00;;;;;;;12.23;9.32;;;12.90;99.90;;;;;;6184358;23;20076;-83
2021/11/08 02:45:28;;;;;;;10.43;8.93;;;12.90;99.90;;;;;;6184489;23;20005;-83
2021/11/08 02:47:54;;;;;;;14.20;9.63;;;12.90;99.90;;;;;;6158094;23;20005;-83
2021/11/08 02:50:23;;;;;;;14.23;8.85;;;12.90;99.90;;;;;;6158210;23;20005;-84
2021/11/08 02:52:51;;;;;;;16.05;9.45;;;12.90;99.90;;;;;;6158479;23;20005;-84
2021/11/08 02:55:18;;;;;;;10.80;8.88;;;12.90;99.90;;;;;;6158548;23;20008;-84
2021/11/08 02:57:47;;;;;;;14.68;9.52;;;12.90;99.90;;;;;;6185101;23;20001;-85
2021/11/08 03:00:14;;;;;;;12.27;8.65;;;12.90;99.90;;;;;;6184760;23;19997;-83
2021/11/08 03:02:41;;;;;;;12.32;8.95;;;12.90;99.90;;;;;;6184974;23;20009;-84
2021/11/08 03:05:11;;;;;;;12.98;8.95;;;12.80;99.90;;;;;;6157925;23;20572;-84
2021/11/08 03:07:38;;;;;;;14.85;9.18;;;12.80;99.90;;;;;;6158085;23;20001;-84
2021/11/08 03:10:11;;;;;;;9.40;8.23;;;12.80;99.90;;;;;;6184200;23;20084;-83
2021/11/08 03:12:39;;;;;;;14.60;9.05;;;12.80;99.90;;;;;;6184916;23;20080;-84
2021/11/08 03:15:11;;;;;;;12.20;8.43;;;12.70;99.90;;;;;;6183799;23;20499;-85
2021/11/08 03:17:43;;;;;;;14.73;9.02;;;12.70;99.90;;;;;;6158211;23;20005;-84
2021/11/08 03:20:15;;;;;;;11.02;8.38;;;12.80;99.90;;;;;;6158220;23;20028;-85
2021/11/08 03:22:48;;;;;;;12.50;9.68;;;12.80;99.90;;;;;;6158914;23;20009;-85
2021/11/08 03:25:22;;;;;;;12.65;9.85;;;12.80;99.90;;;;;;6158589;23;20501;-86
2021/11/08 03:27:55;;;;;;;19.05;10.15;;;12.80;99.90;;;;;;6185008;23;20011;-85
2021/11/08 03:30:25;;;;;;;20.08;9.50;;;12.70;99.90;;;;;;6184806;23;20001;-85
2021/11/08 03:32:53;;;;;;;13.38;9.75;;;12.70;99.90;;;;;;6158906;23;20001;-83
2021/11/08 03:35:22;;;;;;;16.42;10.40;;;12.70;99.90;;;;;;6184515;23;20009;-83
2021/11/08 03:37:49;;;;;;;10.80;9.65;;;12.70;99.90;;;;;;6158124;23;20001;-84
2021/11/08 03:40:39;;;;;;;13.45;10.68;;;12.70;99.90;;;;;;6157640;23;20012;-83
2021/11/08 03:43:07;;;;;;;13.02;10.13;;;12.70;99.90;;;;;;6165882;23;20009;-83
2021/11/08 03:45:35;;;;;;;14.35;10.52;;;12.70;99.90;;;;;;6184515;23;20067;-83
2021/11/08 03:48:00;;;;;;;13.93;11.07;;;12.60;99.90;;;;;;6159396;23;20306;-87
2021/11/08 03:50:27;;;;;;;11.48;9.63;;;12.60;99.90;;;;;;6185646;23;20084;-87
2021/11/08 03:52:53;;;;;;;15.02;11.07;;;12.50;99.90;;;;;;6186058;23;20001;-85
2021/11/08 03:55:19;;;;;;;15.90;10.93;;;12.40;99.90;;;;;;6184821;23;20379;-85
2021/11/08 03:57:47;;;;;;;18.45;11.77;;;12.30;99.90;;;;;;6185379;23;20005;-86
2021/11/08 04:00:14;;;;;;;15.68;11.45;;;12.30;99.90;;;;;;6185067;23;20001;-84
2021/11/08 04:02:42;;;;;;;15.50;11.23;;;12.30;99.90;;;;;;6184935;23;20028;-84
2021/11/08 04:05:10;;;;;;;16.58;12.25;;;12.40;99.90;;;;;;6184700;23;20024;-85
2021/11/08 04:07:36;;;;;;;15.90;11.30;;;12.30;99.90;;;;;;6158405;23;20009;-85
2021/11/08 04:10:05;;;;;;;16.52;12.68;;;12.30;99.90;;;;;;6184944;23;20001;-85
2021/11/08 04:12:30;;;;;;;20.05;13.48;;;12.20;99.90;;;;;;6184501;23;19997;-86
2021/11/08 04:14:56;;;;;;;17.90;13.10;;;12.10;99.90;;;;;;6184491;23;20011;-86
2021/11/08 04:17:25;;;;;;;21.58;14.15;;;12.00;99.90;;;;;;6184436;23;20076;-85
2021/11/08 04:19:52;;;;;;;21.60;14.32;;;12.00;99.90;;;;;;6158339;23;20005;-86
2021/11/08 04:22:19;;;;;;;17.42;14.25;;;11.90;99.90;;;;;;6158856;23;20005;-86
2021/11/08 04:24:47;;;;;;;19.38;15.10;;;11.90;99.90;;;;;;6158230;23;20005;-85
2021/11/08 04:27:13;;;;;;;19.38;15.85;;;11.90;99.90;;;;;;6184620;23;20017;-85
2021/11/08 04:29:39;;;;;;;22.25;16.58;;;11.90;99.90;;;;;;6184374;23;20005;-86
2021/11/08 04:32:06;;;;;;;19.98;17.25;;;11.90;99.90;;;;;;6184919;23;20009;-86
2021/11/08 04:34:45;;;;;;;21.02;17.25;;;11.90;99.90;;;;;;6183741;23;20456;-86
2021/11/08 04:37:29;;;;;;;20.60;16.90;;;11.90;99.90;;;;;;6184432;23;20009;-85
2021/11/08 04:42:49;;;;;;;13.35;8.60;;;12.00;99.90;;;;;;6186677;23;20088;-84
2021/11/08 04:58:01;;;;;;;6.88;6.03;;;12.20;99.90;;;;;;6184742;23;20063;-84
2021/11/08 05:30:01;;;;;;;2.00;1.73;;;12.30;99.90;;;;;;6184237;23;20328;-84
2021/11/08 05:32:31;;;;;;;1.20;1.10;;;12.40;99.90;;;;;;6183808;23;20005;-84
2021/11/08 05:34:58;;;;;;;1.10;1.00;;;12.40;99.90;;;;;;6157890;23;20001;-85
2021/11/08 05:37:24;;;;;;;0.88;0.88;;;12.50;99.90;;;;;;6157916;23;20012;-85
2021/11/08 05:39:53;;;;;;;1.00;0.77;;;12.40;99.90;;;;;;6184334;23;20005;-85
2021/11/08 05:42:19;;;;;;;1.08;0.90;;;12.40;99.90;;;;;;6184915;23;20001;-84
2021/11/08 05:44:46;;;;;;;1.23;0.80;;;12.50;99.90;;;;;;6157778;23;20432;-86
2021/11/08 05:47:11;;;;;;;1.27;0.50;;;12.50;99.90;;;;;;6184680;23;20007;-84
2021/11/08 05:49:38;;;;;;;0.38;0.38;;;12.50;99.90;;;;;;6184137;23;20025;-85
2021/11/08 05:52:04;;;;;;;0.60;0.60;;;12.50;99.90;;;;;;6184563;23;20059;-84
2021/11/08 05:54:30;;;;;;;0.70;0.70;;;12.40;99.90;;;;;;6185580;23;20001;-83
2021/11/08 06:51:37;;;;;;;0.55;0.55;;;12.20;99.90;;;;;;6188545;23;20047;-84
2021/11/08 06:54:03;;;;;;;0.50;0.50;;;12.30;99.90;;;;;;6191857;23;19997;-90
2021/11/08 06:56:34;;;;;;;2.33;0.70;;;12.30;99.90;;;;;;6189252;23;20087;-84
2021/11/08 06:59:03;;;;;;;1.63;0.43;;;12.30;99.90;;;;;;6157035;23;20440;-84
2021/11/08 07:01:29;;;;;;;0.60;0.52;;;12.30;99.90;;;;;;6156174;23;20005;-83
2021/11/08 07:03:55;;;;;;;1.02;0.55;;;12.30;99.90;;;;;;6155671;23;20001;-83
2021/11/08 07:06:22;;;;;;;0.93;0.50;;;12.30;99.90;;;;;;6155860;23;20055;-84
2021/11/08 07:08:48;;;;;;;0.75;0.60;;;12.30;99.90;;;;;;6182967;23;20196;-84
2021/11/08 07:11:13;;;;;;;0.40;0.40;;;12.20;99.90;;;;;;6183614;23;20012;-82
2021/11/08 07:13:39;;;;;;;1.05;0.45;;;12.30;99.90;;;;;;6181966;23;20004;-84
2021/11/08 07:16:05;;;;;;;0.50;0.50;;;12.30;99.90;;;;;;6155884;23;20074;-83
2021/11/08 07:18:31;;;;;;;0.50;0.50;;;12.30;99.90;;;;;;6160281;23;20332;-85
2021/11/08 07:20:56;;;;;;;2.25;0.40;;;12.30;99.90;;;;;;6159689;23;20009;-80
2021/11/08 07:23:22;;;;;;;1.27;0.70;;;12.20;99.90;;;;;;6158243;23;20055;-87
2021/11/08 07:25:51;;;;;;;0.88;0.57;;;12.20;99.90;;;;;;6185637;23;20017;-84
2021/11/08 07:28:17;;;;;;;1.58;0.50;;;12.20;99.90;;;;;;6186256;23;20009;-83
2021/11/08 07:30:46;;;;;;;2.88;0.50;;;12.20;99.90;;;;;;6160058;23;20309;-85
2021/11/08 07:33:12;;;;;;;0.60;0.20;;;12.20;99.90;;;;;;6187444;23;20080;-85
2021/11/08 07:35:38;;;;;;;0.20;0.20;;;12.20;99.90;;;;;;6187508;23;20429;-84
2021/11/08 07:38:03;;;;;;;0.20;0.20;;;12.20;99.90;;;;;;6163395;23;20009;-87
2021/11/08 07:40:29;;;;;;;0.65;0.40;;;12.10;99.90;;;;;;6188266;23;20012;-86
2021/11/08 07:42:55;;;;;;;0.50;0.40;;;12.10;99.90;;;;;;6163329;23;20151;-85
2021/11/08 07:45:24;;;;;;;0.80;0.50;;;12.10;99.90;;;;;;6187358;23;19997;-87
2021/11/08 07:47:50;;;;;;;5.35;0.85;;;12.20;99.90;;;;;;6188994;23;20012;-85
2021/11/08 07:50:15;;;;;;;1.80;0.50;;;12.20;99.90;;;;;;6188461;23;20444;-86
2021/11/08 07:52:41;;;;;;;1.27;0.30;;;12.30;99.90;;;;;;6162655;23;20100;-86
2021/11/08 07:55:07;;;;;;;0.32;0.32;;;12.30;99.90;;;;;;6186288;23;19997;-88
2021/11/08 07:57:33;;;;;;;0.52;0.30;;;12.40;99.90;;;;;;6188218;23;20020;-86
2021/11/08 07:59:58;;;;;;;0.95;0.30;;;12.50;99.90;;;;;;6186394;23;20001;-86
2021/11/08 08:02:24;;;;;;;0.40;0.20;;;12.50;99.90;;;;;;6186886;23;20005;-86
2021/11/08 08:04:50;;;;;;;0.45;0.20;;;12.50;99.90;;;;;;6184476;23;19997;-87
2021/11/08 08:07:16;;;;;;;0.95;0.30;;;12.60;99.90;;;;;;6185106;23;20413;-86
2021/11/08 08:09:41;;;;;;;0.40;0.40;;;12.60;99.90;;;;;;6186209;23;20024;-86
2021/11/08 08:12:08;;;;;;;0.38;0.38;;;12.60;99.90;;;;;;6186482;23;20225;-86
2021/11/08 08:14:34;;;;;;;0.35;0.35;;;12.60;99.90;;;;;;6159395;23;20009;-87
2021/11/08 08:17:01;;;;;;;0.52;0.40;;;12.60;99.90;;;;;;6159369;23;20016;-86
2021/11/08 08:19:27;;;;;;;0.20;0.20;;;12.60;99.90;;;;;;6186603;23;20001;-87
2021/11/08 08:21:53;;;;;;;0.32;0.32;;;12.50;99.90;;;;;;6160982;23;20527;-86
2021/11/08 08:24:18;;;;;;;0.55;0.30;;;12.50;99.90;;;;;;6187971;23;20052;-86
2021/11/08 08:26:44;;;;;;;1.42;0.40;;;12.40;99.90;;;;;;6186415;23;20025;-87
2021/11/08 08:29:12;;;;;;;0.65;0.32;;;12.40;99.90;;;;;;6161911;23;20008;-87
2021/11/08 08:31:41;;;;;;;0.40;0.40;;;12.40;99.90;;;;;;6187618;23;20001;-86
2021/11/08 08:34:08;;;;;;;0.65;0.43;;;12.40;99.90;;;;;;6187391;23;20337;-86
2021/11/08 08:36:34;;;;;;;0.35;0.35;;;12.50;99.90;;;;;;6163621;23;20021;-83
2021/11/08 08:39:00;;;;;;;0.38;0.30;;;12.50;99.90;;;;;;6158198;23;20044;-84
2021/11/08 08:41:26;;;;;;;2.35;0.20;;;12.50;99.90;;;;;;6184185;23;20494;-84
2021/11/08 08:43:52;;;;;;;0.47;0.40;;;12.50;99.90;;;;;;6160714;23;20001;-85
2021/11/08 08:46:20;;;;;;;0.35;0.32;;;12.60;99.90;;;;;;6160767;23;20462;-86
2021/11/08 08:48:47;;;;;;;1.33;0.50;;;12.60;99.90;;;;;;6185703;23;20033;-86
2021/11/08 08:51:13;;;;;;;0.20;0.20;;;12.60;99.90;;;;;;6183370;23;20009;-85
2021/11/08 08:53:39;;;;;;;0.47;0.40;;;12.60;99.90;;;;;;6157654;23;20040;-86
2021/11/08 08:56:05;;;;;;;0.32;0.32;;;12.50;99.90;;;;;;6158438;23;20531;-84
2021/11/08 08:58:31;;;;;;;2.45;0.30;;;12.60;99.90;;;;;;6183165;23;20051;-85
2021/11/08 09:00:58;;;;;;;1.42;0.40;;;12.60;99.90;;;;;;6157759;23;20048;-85
2021/11/08 09:03:24;;;;;;;0.40;0.40;;;12.60;99.90;;;;;;6158382;23;20004;-83
2021/11/08 09:05:51;;;;;;;0.43;0.43;;;12.60;99.90;;;;;;6184864;23;20005;-85
2021/11/08 09:08:19;;;;;;;0.30;0.30;;;12.60;99.90;;;;;;6186028;23;20001;-86
2021/11/08 09:10:46;;;;;;;1.30;0.30;;;12.70;99.90;;;;;;6136904;23;20445;-85
2021/11/08 09:13:13;;;;;;;1.85;0.30;;;12.70;99.90;;;;;;6186110;23;20072;-85
2021/11/08 09:15:40;;;;;;;0.22;0.22;;;12.60;99.90;;;;;;6186691;23;20013;-85
2021/11/08 09:18:09;;;;;;;0.85;0.40;;;12.60;99.90;;;;;;6160964;23;20020;-85
2021/11/08 09:20:37;;;;;;;0.30;0.30;;;12.70;99.90;;;;;;6137123;23;20016;-85
2021/11/08 09:23:05;;;;;;;0.30;0.25;;;12.60;99.90;;;;;;6184441;23;20005;-83
2021/11/08 09:25:31;;;;;;;0.50;0.50;;;12.60;99.90;;;;;;6184887;23;20009;-86
2021/11/08 09:28:00;;;;;;;0.38;0.38;;;12.60;99.90;;;;;;6186718;23;20001;-84
2021/11/08 09:30:29;;;;;;;2.25;0.60;;;12.70;99.90;;;;;;6159218;23;20013;-84
2021/11/08 09:32:55;;;;;;;1.05;0.25;;;12.60;99.90;;;;;;6186573;23;20673;-83
2021/11/08 09:35:22;;;;;;;0.15;0.15;;;12.60;99.90;;;;;;6159102;23;20012;-85
2021/11/08 09:37:49;;;;;;;0.55;0.40;;;12.50;99.90;;;;;;6136318;23;20017;-85
2021/11/08 09:40:19;;;;;;;0.55;0.30;;;12.50;99.90;;;;;;6189003;23;20005;-84
2021/11/08 09:42:47;;;;;;;0.30;0.30;;;12.50;99.90;;;;;;6158705;23;20009;-85
2021/11/08 09:45:14;;;;;;;0.70;0.30;;;12.40;99.90;;;;;;6160496;23;20071;-84
2021/11/08 09:47:40;;;;;;;0.30;0.30;;;12.40;99.90;;;;;;6187344;23;20104;-86
2021/11/08 09:50:09;;;;;;;0.40;0.32;;;12.50;99.90;;;;;;6185805;23;20005;-86
2021/11/08 09:52:39;;;;;;;0.77;0.47;;;12.60;99.90;;;;;;6185170;23;20017;-84
2021/11/08 09:55:08;;;;;;;0.32;0.32;;;12.60;99.90;;;;;;6159542;23;20005;-84
2021/11/08 09:57:37;;;;;;;0.40;0.30;;;12.60;99.90;;;;;;6187699;23;20000;-84
2021/11/08 10:00:24;;;;;;;0.32;0.32;;;12.70;99.90;;;;;;6187729;23;20016;-85
2021/11/08 10:02:59;;;;;;;0.50;0.50;;;12.90;99.90;;;;;;6155966;23;20004;-83
2021/11/08 10:05:34;;;;;;;0.45;0.38;;;13.00;99.90;;;;;;6199256;23;20028;-93
2021/11/08 10:08:00;;;;;;;2.28;1.40;;;13.10;99.90;;;;;;6166928;23;20036;-84
2021/11/08 10:10:30;;;;;;;4.72;0.60;;;13.10;99.90;;;;;;6180633;23;20059;-83
2021/11/08 10:13:09;;;;;;;2.22;0.30;;;13.20;99.90;;;;;;6157425;23;20451;-82
2021/11/08 10:15:37;;;;;;;0.65;0.40;;;13.20;99.90;;;;;;6158432;23;20009;-84
2021/11/08 10:18:04;;;;;;;0.32;0.30;;;13.20;99.90;;;;;;6183207;23;20032;-84
2021/11/08 10:20:42;;;;;;;0.40;0.40;;;13.20;99.90;;;;;;6155244;23;20005;-83
2021/11/08 10:23:10;;;;;;;0.93;0.35;;;13.20;99.90;;;;;;6180835;23;20005;-83
2021/11/08 10:25:38;;;;;;;0.20;0.20;;;13.20;99.90;;;;;;6155990;23;20453;-80
2021/11/08 10:28:15;;;;;;;0.40;0.40;;;13.20;99.90;;;;;;6181630;23;20005;-81
2021/11/08 10:30:41;;;;;;;1.60;0.35;;;13.20;99.90;;;;;;6183062;23;20344;-83
2021/11/08 10:33:13;;;;;;;1.95;0.30;;;13.10;99.90;;;;;;6182787;23;20008;-81
2021/11/08 10:36:04;;;;;;;1.08;0.20;;;13.10;99.90;;;;;;6181284;23;20515;-83
2021/11/08 10:38:32;;;;;;;0.30;0.30;;;13.10;99.90;;;;;;6155134;23;20083;-84
2021/11/08 10:41:06;;;;;;;0.30;0.30;;;13.10;99.90;;;;;;6156067;23;20093;-82
2021/11/08 10:43:46;;;;;;;3.53;0.50;;;13.00;99.90;;;;;;6181338;23;20012;-83
2021/11/08 10:46:19;;;;;;;0.30;0.20;;;13.00;99.90;;;;;;6183045;23;20538;-83
2021/11/08 10:48:49;;;;;;;0.30;0.28;;;13.00;99.90;;;;;;6185124;23;20001;-84
2021/11/08 10:51:17;;;;;;;3.50;0.40;;;13.00;99.90;;;;;;6156837;23;20345;-84
2021/11/08 10:53:49;;;;;;;0.60;0.30;;;13.00;99.90;;;;;;6131002;23;20012;-84
2021/11/08 10:56:33;;;;;;;0.22;0.22;;;13.00;99.90;;;;;;6155969;23;20021;-84
2021/11/08 10:59:01;;;;;;;2.00;0.32;;;13.00;99.90;;;;;;6131139;23;20005;-84
2021/11/08 11:01:33;;;;;;;2.75;0.15;;;13.00;99.90;;;;;;6181987;23;20016;-83
2021/11/08 11:04:06;;;;;;;0.13;0.13;;;13.00;99.90;;;;;;6182778;23;20001;-84
2021/11/08 11:06:44;;;;;;;0.70;0.20;;;13.10;99.90;;;;;;6181999;23;20011;-86
2021/11/08 11:09:18;;;;;;;0.25;0.15;;;13.10;99.90;;;;;;6155914;23;20006;-85
2021/11/08 11:11:46;;;;;;;0.30;0.30;;;13.20;99.90;;;;;;6183123;23;20009;-83
2021/11/08 11:14:12;;;;;;;3.22;0.30;;;13.20;99.90;;;;;;6157588;23;20100;-85
2021/11/08 11:16:42;;;;;;;0.30;0.22;;;13.00;99.90;;;;;;6157770;23;20463;-84
2021/11/08 11:19:14;;;;;;;0.20;0.20;;;13.00;99.90;;;;;;6182833;23;20004;-82
2021/11/08 11:21:54;;;;;;;0.10;0.08;;;13.00;99.90;;;;;;6183714;23;20060;-84
2021/11/08 11:24:32;;;;;;;0.20;0.20;;;12.90;99.90;;;;;;6159398;23;20071;-85
2021/11/08 11:26:58;;;;;;;0.10;0.10;;;12.90;99.90;;;;;;6185620;23;20044;-83
2021/11/08 11:29:29;;;;;;;0.30;0.30;;;12.80;99.90;;;;;;6156357;23;20004;-82
2021/11/08 11:31:55;;;;;;;0.20;0.20;;;12.90;99.90;;;;;;6183251;23;20573;-84
2021/11/08 11:34:21;;;;;;;0.20;0.20;;;12.90;99.90;;;;;;6182409;23;20869;-84
2021/11/08 11:36:47;;;;;;;1.70;0.50;;;12.90;99.90;;;;;;6159199;23;20167;-84
2021/11/08 11:39:16;;;;;;;0.13;0.13;;;12.90;99.90;;;;;;6184579;23;20135;-84
2021/11/08 11:41:45;;;;;;;0.30;0.30;;;12.90;99.90;;;;;;6133996;23;20013;-86
2021/11/08 11:44:15;;;;;;;0.43;0.13;;;12.90;99.90;;;;;;6183948;23;20008;-84
2021/11/08 11:46:48;;;;;;;0.20;0.20;;;12.90;99.90;;;;;;6184119;23;20021;-85
2021/11/08 11:49:15;;;;;;;0.20;0.20;;;13.00;99.90;;;;;;6182013;23;20019;-84
2021/11/08 11:51:57;;;;;;;0.22;0.20;;;13.10;99.90;;;;;;6155899;23;20012;-83
2021/11/08 11:54:26;;;;;;;0.60;0.60;;;13.00;99.90;;;;;;6181243;23;20005;-84
2021/11/08 11:56:54;;;;;;;2.75;0.20;;;13.10;99.90;;;;;;6157177;23;20484;-85
2021/11/08 11:59:20;;;;;;;0.10;0.10;;;13.00;99.90;;;;;;6157152;23;20012;-86
2021/11/08 12:01:46;;;;;;;0.50;0.28;;;13.10;99.90;;;;;;6184729;23;20008;-87
2021/11/08 12:04:13;;;;;;;1.20;0.28;;;13.10;99.90;;;;;;6159521;23;20039;-87
2021/11/08 12:06:44;;;;;;;1.42;0.22;;;13.10;99.90;;;;;;6181466;23;20001;-83
2021/11/08 12:09:16;;;;;;;0.30;0.10;;;13.20;99.90;;;;;;6155295;23;20032;-80
2021/11/08 12:11:48;;;;;;;0.65;0.50;;;13.40;99.90;;;;;;6155775;23;20012;-86
2021/11/08 12:14:19;;;;;;;0.70;0.10;;;13.60;99.90;;;;;;6157206;23;20516;-84
2021/11/08 12:16:49;;;;;;;0.20;0.20;;;13.60;99.90;;;;;;6190638;23;20013;-84
2021/11/08 12:19:18;;;;;;;2.10;0.30;;;13.90;99.90;;;;;;6189559;23;20029;-90
2021/11/08 12:21:45;;;;;;;0.75;0.30;;;14.10;99.90;;;;;;6188325;23;20012;-86
2021/11/08 12:24:29;;;;;;;0.38;0.25;;;15.70;99.00;;;;;;6191415;23;20079;-86
2021/11/08 12:27:08;;;;;;;0.10;0.10;;;18.00;93.60;;;;;;6190258;23;20044;-87
2021/11/08 12:29:49;;;;;;;0.10;0.10;;;18.20;91.30;;;;;;6190275;23;20001;-90
2021/11/08 12:32:15;;;;;;;0.45;0.30;;;18.40;89.80;;;;;;6191727;23;20010;-90
2021/11/08 12:34:45;;;;;;;1.85;0.20;;;18.50;89.40;;;;;;6170175;23;20032;-87
2021/11/08 12:37:11;;;;;;;1.45;0.60;;;18.90;85.90;;;;;;6164503;23;20009;-86
2021/11/08 12:39:37;;;;;;;0.28;0.28;;;18.40;85.40;;;;;;6163863;23;20005;-87
2021/11/08 12:42:08;;;;;;;0.30;0.20;;;18.80;83.60;;;;;;6170260;23;20019;-87
2021/11/08 12:44:34;;;;;;;0.32;0.20;;;18.50;83.90;;;;;;6192532;23;20008;-88
2021/11/08 12:47:00;;;;;;;0.17;0.17;;;18.40;84.30;;;;;;6172096;23;20005;-90
2021/11/08 12:49:53;;;;;;;2.00;0.60;;;18.40;84.00;;;;;;6198767;23;19997;-91
2021/11/08 12:52:26;;;;;;;1.88;0.20;;;18.90;82.70;;;;;;6205303;23;20005;-91
2021/11/08 12:55:00;;;;;;;0.73;0.20;;;18.60;80.70;;;;;;6200399;23;20023;-83
2021/11/08 12:57:28;;;;;;;0.60;0.50;;;18.70;80.80;;;;;;6193605;23;20013;-87
2021/11/08 13:00:00;;;;;;;0.60;0.40;;;19.40;79.40;;;;;;6191368;23;20001;-87
2021/11/08 13:02:51;;;;;;;1.08;0.40;;;19.90;77.00;;;;;;6174025;23;20009;-90
2021/11/08 13:05:36;;;;;;;0.70;0.50;;;18.00;79.40;;;;;;6171900;23;20348;-91
2021/11/08 13:08:03;;;;;;;0.93;0.40;;;16.20;85.40;;;;;;6199911;23;20025;-89
2021/11/08 13:10:38;;;;;;;1.63;0.20;;;15.30;89.10;;;;;;6177004;23;20009;-89
2021/11/08 13:13:08;;;;;;;0.40;0.30;;;14.70;90.60;;;;;;6172087;23;20009;-88
2021/11/08 13:15:42;;;;;;;0.57;0.15;;;14.40;91.50;;;;;;6192184;23;20036;-89
2021/11/08 13:18:10;;;;;;;1.98;0.30;;;14.50;91.50;;;;;;6197918;23;19997;-88
2021/11/08 13:20:44;;;;;;;0.60;0.20;;;14.80;91.40;;;;;;6144140;23;20001;-87
2021/11/08 13:23:23;;;;;;;0.55;0.20;;;15.30;91.50;;;;;;6173046;23;20032;-89
2021/11/08 13:25:54;;;;;;;0.30;0.25;;;15.90;89.80;;;;;;6194959;23;20068;-88
2021/11/08 13:28:24;;;;;;;3.70;0.30;;;15.70;90.00;;;;;;6194650;23;20092;-86
2021/11/08 13:30:55;;;;;;;0.65;0.10;;;17.40;87.50;;;;;;6143009;23;20009;-88
2021/11/08 13:33:24;;;;;;;0.10;0.10;;;18.10;83.90;;;;;;6167868;23;20020;-88
2021/11/08 13:35:50;;;;;;;0.60;0.20;;;19.00;80.70;;;;;;6196356;23;20313;-89
2021/11/08 13:38:20;;;;;;;1.80;0.40;;;18.20;80.10;;;;;;6167975;23;20020;-91
2021/11/08 13:41:17;;;;;;;1.23;0.20;;;18.50;81.30;;;;;;6195125;23;19997;-90
2021/11/08 13:43:48;;;;;;;0.88;0.40;;;18.70;79.90;;;;;;6162288;23;20319;-90
2021/11/08 13:46:21;;;;;;;5.05;0.32;;;19.90;77.70;;;;;;6195054;23;20433;-89
2021/11/08 13:48:52;;;;;;;0.30;0.20;;;20.20;74.00;;;;;;6190482;23;20001;-87
2021/11/08 13:51:22;;;;;;;0.20;0.10;;;19.80;74.40;;;;;;6194678;23;19997;-88
2021/11/08 13:53:53;;;;;;;0.30;0.20;;;19.60;74.60;;;;;;6194907;23;19997;-88
2021/11/08 13:56:20;;;;;;;2.22;0.40;;;20.00;72.90;;;;;;6163514;23;20016;-87
2021/11/08 13:58:52;;;;;;;13.15;0.30;;;19.00;75.20;;;;;;6188995;23;20008;-83
2021/11/08 14:01:20;;;;;;;0.30;0.30;;;17.30;78.90;;;;;;6164901;23;20021;-84
2021/11/08 14:03:48;;;;;;;0.32;0.30;;;16.50;82.90;;;;;;6164997;23;20008;-87
2021/11/08 14:06:36;;;;;;;0.13;0.10;;;16.40;83.80;;;;;;6199144;23;20012;-89
2021/11/08 14:09:21;;;;;;;0.17;0.17;;;16.60;83.10;;;;;;6202279;23;19997;-88
2021/11/08 14:11:47;;;;;;;0.10;0.10;;;16.40;83.60;;;;;;6168082;23;20005;-86
2021/11/08 14:14:17;;;;;;;0.63;0.30;;;16.10;84.60;;;;;;6171662;23;20012;-92
2021/11/08 14:16:47;;;;;;;0.52;0.30;;;16.10;84.20;;;;;;6203758;23;20009;-90
2021/11/08 14:19:21;;;;;;;0.43;0.20;;;16.00;84.90;;;;;;6208132;23;20005;-91
2021/11/08 14:21:50;;;;;;;;;;;15.50;85.80;;;;;;6181508;23;19989;-92
2021/11/08 14:24:19;;;;;;;0.20;0.20;;;15.20;87.20;;;;;;6176002;23;19944;-89
2021/11/08 14:26:50;;;;;;;0.55;0.20;;;14.70;88.90;;;;;;6154486;23;20016;-89
2021/11/08 14:29:23;;;;;;;0.30;0.20;;;14.30;90.00;;;;;;6151380;23;20005;-91
2021/11/08 14:31:55;;;;;;;0.80;0.30;;;14.30;90.30;;;;;;6200619;23;20001;-86
2021/11/08 14:34:25;;;;;;;0.25;0.25;;;14.30;90.40;;;;;;6163804;23;20001;-85